Fort Gillem, Georgia
Current Conditions -  °F | °C
As of 3:52 PM on Sunday 21 Dec 2014 (Local Time) from KATL Reporting Station
Overcast Overcast  
Wind Chill: 44°   Ceiling: 1100
Heat Index: 49°   Visibility: 8mi
Dew Point: 44°   Wind: 12mph
Humidity: 83%   Direction: 90°E
Pressure: 30.1"   Gusts: NA
Location:  33.6133°N, 84.3728°W
Report Text: KATL 212052Z 09010KT 8SM OVC011 09/07 A3010 RMK AO2 SLP194 T00940067 56018
Loading
Personal Weather Stations






























Interactive Weather Map New forecast layout! Learn more

10-Day Weather Forecast

Advertisements
Track Severe Weather on mobile